Time;durP1;ratioP1;P1;durP2;ratioP2;P2;SDS_P1;SDS_P2;PMS_P1;PMS_P2;Temp;Humidity;BMP_temperature;BMP_pressure;BME280_temperature;BME280_humidity;BME280_pressure;Samples;Min_cycle;Max_cycle;Signal;HPM_P1;HPM_P2
2023/12/07 00:00:39;;;;;;;17.92;11.13;;;2.00;99.90;;;;;;5073723;28;20500;-78
2023/12/07 00:03:06;;;;;;;19.83;10.52;;;2.00;99.90;;;;;;5047968;28;20079;-78
2023/12/07 00:05:33;;;;;;;15.23;10.80;;;2.00;99.90;;;;;;5047501;28;20045;-78
2023/12/07 00:07:59;;;;;;;15.55;11.20;;;2.00;99.90;;;;;;5077722;28;20526;-78
2023/12/07 00:10:24;;;;;;;18.95;11.57;;;2.00;99.90;;;;;;5047506;28;20030;-78
2023/12/07 00:12:50;;;;;;;16.52;10.82;;;2.00;99.90;;;;;;5047484;28;20044;-78
2023/12/07 00:15:15;;;;;;;16.65;10.82;;;2.00;99.90;;;;;;5044742;28;20408;-78
2023/12/07 00:17:41;;;;;;;15.98;10.43;;;2.00;99.90;;;;;;5045967;28;20087;-78
2023/12/07 00:20:07;;;;;;;15.25;10.25;;;2.00;99.90;;;;;;5047088;28;20036;-79
2023/12/07 00:22:33;;;;;;;17.67;11.10;;;2.00;99.90;;;;;;5051274;28;20470;-78
2023/12/07 00:24:59;;;;;;;18.25;11.25;;;2.00;99.90;;;;;;5044096;28;20122;-79
2023/12/07 00:27:24;;;;;;;14.55;10.05;;;2.00;99.90;;;;;;5050815;28;20052;-78
2023/12/07 00:29:50;;;;;;;15.00;10.05;;;1.90;99.90;;;;;;5052293;28;20124;-79
2023/12/07 00:32:17;;;;;;;18.83;10.80;;;2.00;99.90;;;;;;5047598;28;20099;-79
2023/12/07 00:34:43;;;;;;;18.23;10.55;;;2.00;99.90;;;;;;5052362;28;20108;-78
2023/12/07 00:37:08;;;;;;;13.82;9.57;;;1.90;99.90;;;;;;5052848;28;20128;-78
2023/12/07 00:39:34;;;;;;;15.18;10.18;;;1.90;99.90;;;;;;5050954;28;20032;-78
2023/12/07 00:41:59;;;;;;;16.40;10.02;;;2.00;99.90;;;;;;5046504;28;20116;-78
2023/12/07 00:44:25;;;;;;;17.23;9.70;;;1.90;99.90;;;;;;5084565;28;20039;-78
2023/12/07 00:46:50;;;;;;;15.57;9.48;;;1.90;99.90;;;;;;5052274;28;20547;-79
2023/12/07 00:49:16;;;;;;;20.85;10.18;;;1.90;99.90;;;;;;5084380;28;20033;-82
2023/12/07 00:51:42;;;;;;;14.15;9.63;;;1.90;99.90;;;;;;5052006;28;20370;-77
2023/12/07 00:54:07;;;;;;;13.40;9.07;;;1.90;99.90;;;;;;5042753;28;20041;-78
2023/12/07 00:56:34;;;;;;;13.48;9.43;;;1.90;99.90;;;;;;5029947;28;20069;-78
2023/12/07 00:58:59;;;;;;;15.52;9.85;;;1.90;99.90;;;;;;5049213;28;20205;-78
2023/12/07 01:01:25;;;;;;;18.23;9.80;;;1.90;99.90;;;;;;5046164;28;20100;-78
2023/12/07 01:03:50;;;;;;;15.50;9.20;;;1.90;99.90;;;;;;5050787;28;20041;-79
2023/12/07 01:06:16;;;;;;;15.05;9.63;;;1.90;99.90;;;;;;5051608;28;20131;-80
2023/12/07 01:08:43;;;;;;;17.67;9.50;;;1.90;99.90;;;;;;5049422;28;20044;-78
2023/12/07 01:11:08;;;;;;;13.68;9.48;;;1.90;99.90;;;;;;5052009;28;20527;-78
2023/12/07 01:13:35;;;;;;;14.55;8.20;;;1.90;99.90;;;;;;5050918;28;20103;-78
2023/12/07 01:16:01;;;;;;;12.98;8.48;;;1.90;99.90;;;;;;5035459;28;20041;-78
2023/12/07 01:18:27;;;;;;;17.40;9.63;;;1.90;99.90;;;;;;5051414;28;20043;-78
2023/12/07 01:20:52;;;;;;;16.05;9.57;;;1.90;99.90;;;;;;5052112;28;20377;-79
2023/12/07 01:23:18;;;;;;;13.18;9.52;;;1.90;99.90;;;;;;5050337;28;20049;-78
2023/12/07 01:25:43;;;;;;;13.25;8.93;;;1.90;99.90;;;;;;5051382;28;20414;-78
2023/12/07 01:28:09;;;;;;;16.40;9.38;;;1.80;99.90;;;;;;5047600;28;20497;-78
2023/12/07 01:30:36;;;;;;;13.73;9.18;;;1.90;99.90;;;;;;5030929;28;20116;-79
2023/12/07 01:33:02;;;;;;;13.20;9.13;;;1.80;99.90;;;;;;5047387;28;20072;-78
2023/12/07 01:35:28;;;;;;;14.57;8.60;;;1.90;99.90;;;;;;5050974;28;20508;-78
2023/12/07 01:37:54;;;;;;;12.10;8.20;;;1.90;99.90;;;;;;5047167;28;20136;-78
2023/12/07 01:40:20;;;;;;;14.77;8.65;;;1.80;99.90;;;;;;5051548;28;20504;-78
2023/12/07 01:42:52;;;;;;;17.05;8.10;;;1.90;99.90;;;;;;5051380;28;20029;-78
2023/12/07 01:45:18;;;;;;;12.00;8.13;;;1.90;99.90;;;;;;5084383;28;20045;-78
2023/12/07 01:47:45;;;;;;;12.80;8.55;;;1.80;99.90;;;;;;5050967;28;20493;-78
2023/12/07 01:50:14;;;;;;;13.20;8.85;;;1.90;99.90;;;;;;5043434;28;20504;-78
2023/12/07 01:52:47;;;;;;;14.23;8.15;;;1.80;99.90;;;;;;5033724;28;20116;-79
2023/12/07 01:55:13;;;;;;;15.43;8.90;;;1.80;99.90;;;;;;5050302;28;20473;-78
2023/12/07 01:57:40;;;;;;;11.50;7.95;;;1.80;99.90;;;;;;5047967;28;20039;-77
2023/12/07 02:00:07;;;;;;;12.95;8.98;;;1.90;99.90;;;;;;5048685;28;20083;-78
2023/12/07 02:02:33;;;;;;;10.85;7.65;;;1.90;99.90;;;;;;5049461;28;20121;-78
2023/12/07 02:04:58;;;;;;;13.27;8.50;;;1.80;99.90;;;;;;5046655;28;20124;-78
2023/12/07 02:07:24;;;;;;;14.50;8.20;;;1.90;99.90;;;;;;5051122;28;20052;-78
2023/12/07 02:09:50;;;;;;;10.75;8.00;;;1.90;99.90;;;;;;5051208;28;20032;-78
2023/12/07 02:12:15;;;;;;;12.18;7.88;;;1.90;99.90;;;;;;5050658;28;20049;-79
2023/12/07 02:14:41;;;;;;;16.10;9.05;;;1.90;99.90;;;;;;5050964;28;20112;-78
2023/12/07 02:17:43;;;;;;;13.57;7.97;;;1.90;99.90;;;;;;5050975;28;20032;-78
2023/12/07 02:20:35;;;;;;;12.38;8.00;;;1.90;99.90;;;;;;5050928;28;20123;-78
2023/12/07 02:23:03;;;;;;;11.32;7.22;;;1.80;99.90;;;;;;5050260;28;20063;-78
2023/12/07 02:25:53;;;;;;;13.18;7.63;;;1.90;99.90;;;;;;5050929;28;20047;-78
2023/12/07 02:28:19;;;;;;;13.07;7.70;;;1.80;99.90;;;;;;5041903;28;20048;-78
2023/12/07 02:30:45;;;;;;;13.25;8.32;;;1.80;99.90;;;;;;5084158;28;20501;-78
2023/12/07 02:33:11;;;;;;;12.23;8.32;;;1.80;99.90;;;;;;5084179;28;20047;-78
2023/12/07 02:35:37;;;;;;;12.88;8.15;;;1.80;99.90;;;;;;5084281;28;21388;-78
2023/12/07 02:38:04;;;;;;;11.77;7.90;;;1.80;99.90;;;;;;5050551;28;20036;-78
2023/12/07 02:40:31;;;;;;;11.55;7.80;;;1.80;99.90;;;;;;5050196;28;20105;-78
2023/12/07 02:42:57;;;;;;;13.23;8.00;;;1.80;99.90;;;;;;5050214;28;20083;-78
2023/12/07 02:45:23;;;;;;;15.32;7.72;;;1.80;99.90;;;;;;5050300;28;20102;-78
2023/12/07 02:47:49;;;;;;;10.93;7.95;;;1.80;99.90;;;;;;5034033;28;20488;-78
2023/12/07 02:50:15;;;;;;;12.52;7.93;;;1.80;99.90;;;;;;5050251;28;20048;-78
2023/12/07 02:52:41;;;;;;;13.57;8.10;;;1.80;99.90;;;;;;5049784;28;20037;-78
2023/12/07 02:55:07;;;;;;;12.93;8.20;;;1.80;99.90;;;;;;5047227;28;20032;-78
2023/12/07 02:57:36;;;;;;;12.48;7.60;;;1.70;99.90;;;;;;5033740;28;20443;-78
2023/12/07 03:00:06;;;;;;;11.38;7.60;;;1.70;99.90;;;;;;5041382;28;20033;-77
2023/12/07 03:02:34;;;;;;;12.32;7.60;;;1.70;99.90;;;;;;5047737;28;20049;-78
2023/12/07 03:04:59;;;;;;;10.60;7.68;;;1.80;99.90;;;;;;5032828;28;20048;-78
2023/12/07 03:07:25;;;;;;;12.55;8.45;;;1.70;99.90;;;;;;5048242;28;20041;-78
2023/12/07 03:09:50;;;;;;;11.73;7.85;;;1.80;99.90;;;;;;5043956;28;20072;-79
2023/12/07 03:12:16;;;;;;;11.30;7.88;;;1.70;99.90;;;;;;5049369;28;20045;-78
2023/12/07 03:14:42;;;;;;;11.68;8.15;;;1.70;99.90;;;;;;5049876;28;20040;-78
2023/12/07 03:17:07;;;;;;;12.68;7.90;;;1.70;99.90;;;;;;5031940;28;20037;-78
2023/12/07 03:19:37;;;;;;;12.68;7.93;;;1.70;99.90;;;;;;5049744;28;20381;-78
2023/12/07 03:22:03;;;;;;;12.00;7.55;;;1.70;99.90;;;;;;5049207;28;20037;-79
2023/12/07 03:24:29;;;;;;;14.90;8.32;;;1.70;99.90;;;;;;5049648;28;20044;-79
2023/12/07 03:26:54;;;;;;;11.27;8.05;;;1.80;99.90;;;;;;5047687;28;20032;-78
2023/12/07 03:29:20;;;;;;;12.73;8.02;;;1.80;99.90;;;;;;5048394;28;20067;-78
2023/12/07 03:31:45;;;;;;;12.07;8.18;;;1.70;99.90;;;;;;5042453;28;20063;-78
2023/12/07 03:34:12;;;;;;;12.95;8.15;;;1.80;99.90;;;;;;5048514;28;20056;-78
2023/12/07 03:36:39;;;;;;;11.93;7.72;;;1.70;99.90;;;;;;5076018;28;20112;-78
2023/12/07 03:39:04;;;;;;;13.27;8.10;;;1.70;99.90;;;;;;5043159;28;20041;-78
2023/12/07 03:41:30;;;;;;;10.80;7.88;;;1.70;99.90;;;;;;5042856;28;20640;-78
2023/12/07 03:43:56;;;;;;;13.85;8.30;;;1.70;99.90;;;;;;5032860;28;20041;-78
2023/12/07 03:46:21;;;;;;;12.30;8.05;;;1.70;99.90;;;;;;5047935;28;20037;-79
2023/12/07 03:48:47;;;;;;;13.80;7.72;;;1.60;99.90;;;;;;5049424;28;20040;-79
2023/12/07 03:51:15;;;;;;;10.77;7.43;;;1.60;99.90;;;;;;5048183;28;20041;-78
2023/12/07 03:53:41;;;;;;;12.90;8.20;;;1.50;99.90;;;;;;5034997;28;20051;-78
2023/12/07 03:56:07;;;;;;;13.23;7.53;;;1.50;99.90;;;;;;5048048;28;20696;-78
2023/12/07 03:58:32;;;;;;;13.02;7.93;;;1.50;99.90;;;;;;5046498;28;20029;-78
2023/12/07 04:00:58;;;;;;;11.88;8.02;;;1.40;99.90;;;;;;5052434;28;20055;-78
2023/12/07 04:03:24;;;;;;;14.82;8.30;;;1.40;99.90;;;;;;5052614;28;20044;-78
2023/12/07 04:05:49;;;;;;;12.20;8.38;;;1.30;99.90;;;;;;5051548;28;20468;-79
2023/12/07 04:08:15;;;;;;;13.32;8.00;;;1.30;99.90;;;;;;5047841;28;20423;-78
2023/12/07 04:10:40;;;;;;;12.87;8.17;;;1.30;99.90;;;;;;5067762;28;20036;-78
2023/12/07 04:13:06;;;;;;;16.60;8.00;;;1.20;99.90;;;;;;5050984;28;20037;-78
2023/12/07 04:15:31;;;;;;;12.07;8.07;;;1.20;99.90;;;;;;5053034;28;20033;-78
2023/12/07 04:17:57;;;;;;;14.77;8.68;;;1.20;99.90;;;;;;5051705;28;20045;-78
2023/12/07 04:20:23;;;;;;;14.13;8.20;;;1.20;99.90;;;;;;5049641;28;20408;-78
2023/12/07 04:22:48;;;;;;;13.85;7.82;;;1.20;99.90;;;;;;5036079;28;20555;-78
2023/12/07 04:25:14;;;;;;;13.35;7.68;;;1.20;99.90;;;;;;5053260;28;20044;-78
2023/12/07 04:27:40;;;;;;;11.85;7.88;;;1.10;99.90;;;;;;5048855;28;20080;-79
2023/12/07 04:30:06;;;;;;;13.18;8.55;;;1.10;99.90;;;;;;5051227;28;20072;-78
2023/12/07 04:32:31;;;;;;;13.45;8.05;;;1.10;99.90;;;;;;5052470;28;20037;-78
2023/12/07 04:34:57;;;;;;;14.07;8.30;;;1.10;99.90;;;;;;5052973;28;20036;-78
2023/12/07 04:37:23;;;;;;;13.10;8.50;;;1.10;99.90;;;;;;5049161;28;20484;-78
2023/12/07 04:39:49;;;;;;;14.03;9.27;;;1.10;99.90;;;;;;5050369;28;20418;-78
2023/12/07 04:42:14;;;;;;;14.83;8.87;;;1.00;99.90;;;;;;5049474;28;20037;-78
2023/12/07 04:44:40;;;;;;;15.70;8.20;;;1.00;99.90;;;;;;5051973;28;20123;-79
2023/12/07 04:47:05;;;;;;;12.98;8.40;;;1.00;99.90;;;;;;5027196;28;20513;-78
2023/12/07 04:49:31;;;;;;;14.00;8.77;;;1.00;99.90;;;;;;5051765;28;20037;-78
2023/12/07 04:51:57;;;;;;;15.48;9.63;;;0.90;99.90;;;;;;5052295;28;20575;-78
2023/12/07 04:54:22;;;;;;;16.90;9.60;;;0.90;99.90;;;;;;5050719;28;20532;-79
2023/12/07 04:56:48;;;;;;;14.43;9.37;;;0.90;99.90;;;;;;5052789;28;20083;-78
2023/12/07 04:59:13;;;;;;;14.90;9.53;;;0.90;99.90;;;;;;5086027;28;20052;-78
2023/12/07 05:01:39;;;;;;;16.53;9.97;;;0.90;99.90;;;;;;5068877;28;20048;-78
2023/12/07 05:04:05;;;;;;;19.60;11.20;;;0.90;99.90;;;;;;5053252;28;20405;-78
2023/12/07 05:06:31;;;;;;;15.50;9.80;;;0.90;99.90;;;;;;5052219;28;20192;-79
2023/12/07 05:08:57;;;;;;;19.63;10.27;;;0.90;99.90;;;;;;5052527;28;20036;-78
2023/12/07 05:11:23;;;;;;;18.67;10.67;;;0.90;99.90;;;;;;5051986;28;20048;-78
2023/12/07 05:13:49;;;;;;;19.60;11.27;;;0.90;99.90;;;;;;5051939;28;20404;-79
2023/12/07 05:16:14;;;;;;;20.37;10.93;;;0.90;99.90;;;;;;5052262;28;20067;-78
2023/12/07 05:18:40;;;;;;;18.00;10.93;;;0.90;99.90;;;;;;5051855;28;20044;-78
2023/12/07 05:21:07;;;;;;;18.67;10.70;;;0.90;99.90;;;;;;5052044;28;20468;-78
2023/12/07 05:23:33;;;;;;;21.17;12.40;;;0.90;99.90;;;;;;5051349;28;20040;-78
2023/12/07 05:25:59;;;;;;;21.57;12.07;;;0.90;99.90;;;;;;5052060;28;20039;-78
2023/12/07 05:28:25;;;;;;;19.23;11.50;;;0.90;99.90;;;;;;5052015;28;20067;-79
2023/12/07 05:30:52;;;;;;;20.70;11.48;;;0.90;99.90;;;;;;5029655;28;20044;-78
2023/12/07 05:33:19;;;;;;;20.27;12.07;;;0.90;99.90;;;;;;5051469;28;20073;-78
2023/12/07 05:35:45;;;;;;;19.05;11.07;;;0.90;99.90;;;;;;5085031;28;20033;-78
2023/12/07 05:38:11;;;;;;;20.30;12.50;;;0.90;99.90;;;;;;5032333;28;20633;-78
2023/12/07 05:40:36;;;;;;;22.73;11.83;;;0.90;99.90;;;;;;5051391;28;20036;-78
2023/12/07 05:43:02;;;;;;;20.57;12.20;;;0.90;99.90;;;;;;5054107;28;20093;-78
2023/12/07 05:45:29;;;;;;;20.83;11.70;;;0.90;99.90;;;;;;5051838;28;20098;-78
2023/12/07 05:47:55;;;;;;;19.40;11.50;;;0.90;99.90;;;;;;5035090;28;20400;-79
2023/12/07 05:50:21;;;;;;;19.73;10.93;;;0.90;99.90;;;;;;5047149;28;20124;-79
2023/12/07 05:52:47;;;;;;;21.20;11.47;;;0.90;99.90;;;;;;5046907;28;20044;-78
2023/12/07 05:55:13;;;;;;;19.00;11.10;;;0.90;99.90;;;;;;5028936;28;20048;-78
2023/12/07 05:57:39;;;;;;;19.93;10.70;;;0.90;99.90;;;;;;5044615;28;20115;-78
2023/12/07 06:00:09;;;;;;;18.77;11.03;;;0.90;99.90;;;;;;5049741;28;20116;-78
2023/12/07 06:02:34;;;;;;;18.60;11.13;;;1.00;99.90;;;;;;5047099;28;20523;-78
2023/12/07 06:05:00;;;;;;;20.93;11.17;;;1.00;99.90;;;;;;5046839;28;20037;-78
2023/12/07 06:07:26;;;;;;;20.37;11.30;;;1.00;99.90;;;;;;5051291;28;20029;-78
2023/12/07 06:09:51;;;;;;;20.27;11.20;;;1.00;99.90;;;;;;5049307;28;20047;-79
2023/12/07 06:12:17;;;;;;;19.20;10.77;;;1.10;99.90;;;;;;5049503;28;20151;-78
2023/12/07 06:14:43;;;;;;;20.00;10.57;;;1.00;99.90;;;;;;5050439;28;20095;-77
2023/12/07 06:17:08;;;;;;;19.87;11.13;;;1.40;99.90;;;;;;5050383;28;20040;-78
2023/12/07 06:19:34;;;;;;;19.50;10.40;;;1.10;99.90;;;;;;5046962;28;20037;-78
2023/12/07 06:21:59;;;;;;;19.60;11.30;;;1.10;99.90;;;;;;5050839;28;20454;-78
2023/12/07 06:24:25;;;;;;;18.65;10.40;;;1.10;99.90;;;;;;5050798;28;20045;-78
2023/12/07 06:26:51;;;;;;;19.20;10.33;;;1.20;99.90;;;;;;5047685;28;20507;-78
2023/12/07 06:29:18;;;;;;;19.80;10.67;;;1.20;99.90;;;;;;5047128;28;20045;-78
2023/12/07 06:31:44;;;;;;;18.97;10.90;;;1.20;99.90;;;;;;5045811;28;20041;-80
2023/12/07 06:34:10;;;;;;;21.08;11.07;;;1.20;99.90;;;;;;5048340;28;20040;-78
2023/12/07 06:36:35;;;;;;;18.20;10.52;;;1.20;99.90;;;;;;5043428;28;20555;-78
2023/12/07 06:39:03;;;;;;;19.13;10.85;;;1.20;99.90;;;;;;5048678;28;20090;-78
2023/12/07 06:41:28;;;;;;;21.07;11.00;;;1.20;99.90;;;;;;5081655;28;20065;-78
2023/12/07 06:43:54;;;;;;;21.17;10.90;;;1.20;99.90;;;;;;5048886;28;20102;-79
2023/12/07 06:46:20;;;;;;;18.10;10.13;;;1.20;99.90;;;;;;5042554;28;20040;-78
2023/12/07 06:48:45;;;;;;;18.83;10.57;;;1.20;99.90;;;;;;5041044;28;20033;-78
2023/12/07 06:51:14;;;;;;;18.13;10.50;;;1.30;99.90;;;;;;5047978;28;20116;-78
2023/12/07 06:53:40;;;;;;;18.10;10.00;;;1.30;99.90;;;;;;5048565;28;20068;-78
2023/12/07 06:56:07;;;;;;;17.60;9.77;;;1.30;99.90;;;;;;5047891;28;20033;-78
2023/12/07 06:58:33;;;;;;;19.20;10.63;;;1.30;99.90;;;;;;5047819;28;20033;-78
2023/12/07 07:00:58;;;;;;;18.07;11.20;;;1.30;99.90;;;;;;5045941;28;20070;-78
2023/12/07 07:03:24;;;;;;;19.23;10.97;;;1.30;99.90;;;;;;5049994;28;20516;-77
2023/12/07 07:05:50;;;;;;;19.40;11.13;;;1.30;99.90;;;;;;5050174;28;20037;-78
2023/12/07 07:08:16;;;;;;;19.42;10.48;;;1.30;99.90;;;;;;5049913;28;20072;-78
2023/12/07 07:10:44;;;;;;;21.37;11.17;;;1.20;99.90;;;;;;5049812;28;20035;-77
2023/12/07 07:13:09;;;;;;;18.77;10.80;;;1.30;99.90;;;;;;5049870;28;20040;-78
2023/12/07 07:15:35;;;;;;;18.80;10.90;;;1.20;99.90;;;;;;5042433;28;20040;-78
2023/12/07 07:18:01;;;;;;;18.87;10.97;;;1.30;99.90;;;;;;5047010;28;20529;-78
2023/12/07 07:20:27;;;;;;;18.70;10.63;;;1.20;99.90;;;;;;5045163;28;20044;-78
2023/12/07 07:22:53;;;;;;;19.42;11.57;;;1.30;99.90;;;;;;5048127;28;20452;-78
2023/12/07 07:25:19;;;;;;;19.98;11.35;;;1.30;99.90;;;;;;5046281;28;20767;-79
2023/12/07 07:27:48;;;;;;;21.50;11.88;;;1.30;99.90;;;;;;5043800;28;20037;-80
2023/12/07 07:30:13;;;;;;;20.48;12.23;;;1.30;99.90;;;;;;5046438;28;20041;-78
2023/12/07 07:32:40;;;;;;;19.45;11.40;;;1.30;99.90;;;;;;5046169;28;20526;-78
2023/12/07 07:35:06;;;;;;;19.05;11.27;;;1.30;99.90;;;;;;5046536;28;20033;-78
2023/12/07 07:37:31;;;;;;;18.02;10.20;;;1.30;99.90;;;;;;5046346;28;20127;-78
2023/12/07 07:39:57;;;;;;;21.90;12.60;;;1.30;99.90;;;;;;5047554;28;20045;-79
2023/12/07 07:42:22;;;;;;;19.65;11.23;;;1.30;99.90;;;;;;5049124;28;20151;-78
2023/12/07 07:44:48;;;;;;;21.53;11.33;;;1.30;99.90;;;;;;5058598;28;20779;-78
2023/12/07 07:47:14;;;;;;;21.93;12.00;;;1.30;99.90;;;;;;5049430;28;20116;-78
2023/12/07 07:49:39;;;;;;;23.37;12.83;;;1.30;99.90;;;;;;5049596;28;20396;-78
2023/12/07 07:52:05;;;;;;;24.48;13.02;;;1.30;99.90;;;;;;5049312;28;20724;-78
2023/12/07 07:54:31;;;;;;;22.70;13.83;;;1.40;99.90;;;;;;5032615;28;20045;-78
2023/12/07 07:56:57;;;;;;;23.73;13.05;;;1.40;99.90;;;;;;5048842;28;20040;-78
2023/12/07 07:59:22;;;;;;;23.40;13.00;;;1.40;99.90;;;;;;5047634;28;20538;-79
2023/12/07 08:01:48;;;;;;;23.23;12.50;;;1.40;99.90;;;;;;5048310;28;20087;-78
2023/12/07 08:04:15;;;;;;;22.55;13.25;;;1.40;99.90;;;;;;5049447;28;20037;-78
2023/12/07 08:06:41;;;;;;;25.30;13.77;;;1.40;99.90;;;;;;5032199;28;20072;-78
2023/12/07 08:09:09;;;;;;;22.75;13.68;;;1.40;99.90;;;;;;5042412;28;20071;-78
2023/12/07 08:11:34;;;;;;;24.20;14.52;;;1.40;99.90;;;;;;5048410;28;20535;-78
2023/12/07 08:14:00;;;;;;;27.50;14.60;;;1.40;99.90;;;;;;5043687;28;20162;-78
2023/12/07 08:16:27;;;;;;;25.85;14.30;;;1.40;99.90;;;;;;5049750;28;20571;-78
2023/12/07 08:18:52;;;;;;;27.10;15.40;;;1.50;99.90;;;;;;5047217;28;20064;-78
2023/12/07 08:21:22;;;;;;;26.80;15.73;;;1.50;99.90;;;;;;5048799;28;20107;-78
2023/12/07 08:23:48;;;;;;;29.60;16.02;;;1.50;99.90;;;;;;5041544;28;20090;-78
2023/12/07 08:26:14;;;;;;;28.98;16.40;;;1.50;99.90;;;;;;5049087;28;20049;-78
2023/12/07 08:28:43;;;;;;;27.92;15.85;;;1.50;99.90;;;;;;5045902;28;20041;-78
2023/12/07 08:31:10;;;;;;;29.55;16.17;;;1.40;99.90;;;;;;5063269;28;20051;-78
2023/12/07 08:33:37;;;;;;;29.13;15.87;;;1.40;99.90;;;;;;5048606;28;20038;-78
2023/12/07 08:36:03;;;;;;;28.30;15.10;;;1.40;99.90;;;;;;5048941;28;20083;-78
2023/12/07 08:38:29;;;;;;;26.10;15.27;;;1.30;99.90;;;;;;5044460;28;20095;-78
2023/12/07 08:40:54;;;;;;;26.87;15.43;;;1.20;99.90;;;;;;5051303;28;20083;-78
2023/12/07 08:43:25;;;;;;;31.00;14.93;;;1.30;99.90;;;;;;5052666;28;20036;-78
2023/12/07 08:45:54;;;;;;;26.37;15.27;;;1.20;99.90;;;;;;5045866;28;20178;-78
2023/12/07 08:48:20;;;;;;;30.10;15.93;;;1.20;99.90;;;;;;5049290;28;20603;-78
2023/12/07 08:50:46;;;;;;;27.47;16.20;;;1.10;99.90;;;;;;5052267;28;20144;-78
2023/12/07 08:53:11;;;;;;;29.47;16.23;;;1.10;99.90;;;;;;5047687;28;20089;-78
2023/12/07 08:55:37;;;;;;;30.30;17.30;;;1.00;99.90;;;;;;5052433;28;20070;-78
2023/12/07 08:58:06;;;;;;;27.13;15.30;;;1.00;99.90;;;;;;5050264;28;20037;-78
2023/12/07 09:00:32;;;;;;;32.15;16.95;;;0.90;99.90;;;;;;5050268;28;20056;-78
2023/12/07 09:02:58;;;;;;;31.27;16.20;;;0.90;99.90;;;;;;5044558;28;20040;-78
2023/12/07 09:05:26;;;;;;;31.43;16.23;;;0.90;99.90;;;;;;5047282;28;20033;-78
2023/12/07 09:07:52;;;;;;;29.37;15.77;;;1.00;99.90;;;;;;5048564;28;20041;-78
2023/12/07 09:10:19;;;;;;;30.10;16.70;;;0.90;99.90;;;;;;5049458;28;20067;-78
2023/12/07 09:12:44;;;;;;;28.63;15.93;;;0.90;99.90;;;;;;5052141;28;20037;-78
2023/12/07 09:15:10;;;;;;;31.90;15.90;;;0.80;99.90;;;;;;5052262;28;20053;-78
2023/12/07 09:17:37;;;;;;;31.47;17.00;;;0.80;99.90;;;;;;5053511;28;20075;-78
2023/12/07 09:20:05;;;;;;;31.50;16.73;;;0.80;99.90;;;;;;5046912;28;20112;-79
2023/12/07 09:22:31;;;;;;;37.80;18.65;;;0.80;99.90;;;;;;5051554;28;20524;-79
2023/12/07 09:24:57;;;;;;;34.73;18.33;;;0.80;99.90;;;;;;5052309;28;20106;-78
2023/12/07 09:27:22;;;;;;;29.70;17.03;;;0.80;99.90;;;;;;5042311;28;20787;-78
2023/12/07 09:29:48;;;;;;;35.43;19.07;;;0.80;99.90;;;;;;5052048;28;20037;-77
2023/12/07 09:32:14;;;;;;;35.10;17.90;;;0.90;99.90;;;;;;5051480;28;20037;-78
2023/12/07 09:34:39;;;;;;;36.50;19.15;;;0.90;99.90;;;;;;5043354;28;20086;-78
2023/12/07 09:37:09;;;;;;;34.03;18.87;;;0.90;99.90;;;;;;5051772;28;20037;-78
2023/12/07 09:39:35;;;;;;;35.77;19.37;;;0.90;99.90;;;;;;5051530;28;20041;-78
2023/12/07 09:42:02;;;;;;;34.30;19.60;;;1.00;99.90;;;;;;5051801;28;20045;-79
2023/12/07 09:44:28;;;;;;;36.87;19.03;;;1.00;99.90;;;;;;5051484;28;20041;-79
2023/12/07 09:46:54;;;;;;;36.73;19.97;;;1.10;99.90;;;;;;5042111;28;20048;-78
2023/12/07 09:49:23;;;;;;;30.53;18.70;;;1.10;99.90;;;;;;5033245;28;20053;-78
2023/12/07 09:51:50;;;;;;;32.77;19.00;;;1.20;99.90;;;;;;5026361;28;20084;-77
2023/12/07 09:54:17;;;;;;;33.17;17.93;;;1.30;99.90;;;;;;5054847;28;20443;-78
2023/12/07 09:56:43;;;;;;;36.47;18.77;;;1.40;99.90;;;;;;5050975;28;20060;-77
2023/12/07 09:59:09;;;;;;;34.03;19.07;;;1.40;99.90;;;;;;5043413;28;20045;-77
2023/12/07 10:01:35;;;;;;;32.37;18.47;;;1.50;99.90;;;;;;5046647;28;20045;-78
2023/12/07 10:04:36;;;;;;;30.83;18.80;;;1.50;99.90;;;;;;5046792;28;20057;-77
2023/12/07 10:07:02;;;;;;;32.03;18.37;;;1.60;99.90;;;;;;5013502;28;20564;-77
2023/12/07 10:09:27;;;;;;;32.17;19.13;;;1.60;99.90;;;;;;5041734;28;20049;-77
2023/12/07 10:12:03;;;;;;;30.23;18.45;;;1.70;99.90;;;;;;5036114;28;20063;-77
2023/12/07 10:14:29;;;;;;;31.98;18.02;;;1.70;99.90;;;;;;5034293;28;20198;-77
2023/12/07 10:16:56;;;;;;;30.60;18.17;;;1.80;99.90;;;;;;5036076;28;20119;-77
2023/12/07 10:19:22;;;;;;;30.27;17.98;;;2.00;99.90;;;;;;5054257;28;20471;-77
2023/12/07 10:21:52;;;;;;;27.57;17.07;;;1.80;99.90;;;;;;5051336;28;20570;-78
2023/12/07 10:24:19;;;;;;;33.35;18.13;;;1.80;99.90;;;;;;5085482;28;20044;-77
2023/12/07 10:26:47;;;;;;;31.58;17.40;;;1.90;99.90;;;;;;5051024;28;20055;-77
2023/12/07 10:29:12;;;;;;;31.40;18.00;;;1.90;99.90;;;;;;5034356;28;20408;-77
2023/12/07 10:31:38;;;;;;;29.88;16.73;;;1.90;99.90;;;;;;5051163;28;20057;-78
2023/12/07 10:34:08;;;;;;;25.75;16.60;;;2.00;99.90;;;;;;5049024;28;20132;-78
2023/12/07 10:36:34;;;;;;;30.88;17.13;;;2.00;99.90;;;;;;5054993;28;20047;-77
2023/12/07 10:38:59;;;;;;;26.17;15.88;;;2.10;99.90;;;;;;5080348;28;20128;-78
2023/12/07 10:41:25;;;;;;;30.10;16.98;;;2.10;99.90;;;;;;5045230;28;20052;-77
2023/12/07 10:44:00;;;;;;;30.80;16.35;;;2.20;99.90;;;;;;5044501;28;20103;-78
2023/12/07 10:46:27;;;;;;;31.05;17.08;;;2.20;99.90;;;;;;5043885;28;20075;-77
2023/12/07 10:49:01;;;;;;;26.60;16.45;;;2.30;99.90;;;;;;5043587;28;20437;-79
2023/12/07 10:52:05;;;;;;;26.00;16.27;;;3.50;99.90;;;;;;5031599;28;20037;-79
2023/12/07 10:54:50;;;;;;;25.02;14.38;;;2.40;99.90;;;;;;5036613;28;20057;-78
2023/12/07 10:57:16;;;;;;;25.98;15.52;;;2.50;99.90;;;;;;5047476;28;20120;-78
2023/12/07 10:59:44;;;;;;;27.42;15.88;;;2.60;99.90;;;;;;5049856;28;20052;-77
2023/12/07 11:02:13;;;;;;;27.33;16.77;;;2.60;99.90;;;;;;5048959;28;20045;-77
2023/12/07 11:04:42;;;;;;;28.25;17.63;;;2.70;99.90;;;;;;5049986;28;20033;-78
2023/12/07 11:07:12;;;;;;;27.70;16.58;;;2.70;99.90;;;;;;5050139;28;20037;-78
2023/12/07 11:09:45;;;;;;;29.45;18.23;;;2.80;99.90;;;;;;5033571;28;20389;-77
2023/12/07 11:12:33;;;;;;;27.35;17.55;;;2.90;99.90;;;;;;5044269;28;20095;-78
2023/12/07 11:14:59;;;;;;;29.48;17.55;;;2.90;99.90;;;;;;5048722;28;20672;-78
2023/12/07 11:17:26;;;;;;;31.35;18.08;;;3.00;99.90;;;;;;5049277;28;20044;-78
2023/12/07 11:19:52;;;;;;;32.80;18.73;;;3.70;99.90;;;;;;5050217;28;20103;-78
2023/12/07 11:22:22;;;;;;;32.72;20.27;;;3.10;99.90;;;;;;5032573;28;20040;-78
2023/12/07 11:25:00;;;;;;;31.23;19.08;;;3.10;99.90;;;;;;5046332;28;20056;-78
2023/12/07 11:27:31;;;;;;;29.63;18.48;;;3.20;99.90;;;;;;5047025;28;20071;-77
2023/12/07 11:30:00;;;;;;;29.35;18.33;;;3.20;99.90;;;;;;5042985;28;20025;-78
2023/12/07 11:32:27;;;;;;;28.60;18.48;;;3.20;99.90;;;;;;5049696;28;20033;-78
2023/12/07 11:34:52;;;;;;;27.52;17.95;;;3.30;99.90;;;;;;5044031;28;20030;-77
2023/12/07 11:37:20;;;;;;;30.95;17.52;;;3.30;99.90;;;;;;5046925;28;20529;-77
2023/12/07 11:39:45;;;;;;;26.88;16.23;;;3.40;99.90;;;;;;5045542;28;20080;-77
2023/12/07 11:42:15;;;;;;;28.70;17.33;;;3.30;99.90;;;;;;5045139;28;20094;-77
2023/12/07 11:44:43;;;;;;;28.42;17.75;;;3.40;99.90;;;;;;5047862;28;20107;-77
2023/12/07 11:47:09;;;;;;;30.33;17.75;;;3.50;99.90;;;;;;5032312;28;20056;-78
2023/12/07 11:49:35;;;;;;;30.65;18.42;;;3.50;99.90;;;;;;5047319;28;20041;-76
2023/12/07 11:52:12;;;;;;;28.30;16.83;;;4.10;99.90;;;;;;5047986;28;20464;-77
2023/12/07 11:54:37;;;;;;;25.35;16.38;;;3.50;99.90;;;;;;5080812;28;20041;-77
2023/12/07 11:57:03;;;;;;;23.20;15.35;;;3.40;99.90;;;;;;5041049;28;20037;-78
2023/12/07 11:59:29;;;;;;;22.70;15.02;;;3.40;99.90;;;;;;5045835;28;20041;-78
2023/12/07 12:01:55;;;;;;;24.15;15.10;;;3.40;99.90;;;;;;5048870;28;20029;-77
2023/12/07 12:04:21;;;;;;;22.98;14.77;;;3.30;99.90;;;;;;5048246;28;20041;-78
2023/12/07 12:06:47;;;;;;;26.65;15.88;;;3.20;99.90;;;;;;5049225;28;20051;-78
2023/12/07 12:09:17;;;;;;;25.25;16.15;;;3.10;99.90;;;;;;5040540;28;20369;-77
2023/12/07 12:11:49;;;;;;;24.67;15.23;;;2.80;99.90;;;;;;5031545;28;20030;-78
2023/12/07 12:14:16;;;;;;;23.08;15.00;;;2.70;99.90;;;;;;5042919;28;20132;-77
2023/12/07 12:16:44;;;;;;;22.45;14.77;;;3.10;99.90;;;;;;5053426;28;20040;-78
2023/12/07 12:19:10;;;;;;;27.05;16.63;;;2.60;99.90;;;;;;5035170;28;20064;-78
2023/12/07 12:21:38;;;;;;;29.25;17.95;;;2.50;99.90;;;;;;5051422;28;20531;-77
2023/12/07 12:24:10;;;;;;;27.65;16.95;;;2.40;99.90;;;;;;5051739;28;20045;-77
2023/12/07 12:26:38;;;;;;;27.85;16.35;;;2.30;99.90;;;;;;5051731;28;20048;-78
2023/12/07 12:29:06;;;;;;;28.35;17.92;;;2.20;99.90;;;;;;5051212;28;20037;-77
2023/12/07 12:31:32;;;;;;;28.80;17.58;;;2.20;99.90;;;;;;5034491;28;20095;-78
2023/12/07 12:34:00;;;;;;;29.25;17.77;;;2.20;99.90;;;;;;5052342;28;20684;-77
2023/12/07 12:36:28;;;;;;;30.17;17.38;;;2.20;99.90;;;;;;5050798;28;20057;-77
2023/12/07 12:38:54;;;;;;;29.55;17.00;;;2.20;99.90;;;;;;5069498;28;20033;-77